createdAt,value
2023-03-26T00:00:08.468Z,87
2023-03-26T00:00:38.794Z,87
2023-03-26T00:01:11.481Z,87
2023-03-26T00:01:36.072Z,87
2023-03-26T00:01:58.688Z,87
2023-03-26T00:02:31.445Z,87
2023-03-26T00:03:03.101Z,87
2023-03-26T00:03:34.944Z,87
2023-03-26T00:04:07.147Z,87
2023-03-26T00:04:38.781Z,87
2023-03-26T00:05:10.965Z,87
2023-03-26T00:05:27.337Z,87
2023-03-26T00:05:59.411Z,86
2023-03-26T00:06:30.723Z,86
2023-03-26T00:06:47.553Z,86
2023-03-26T00:07:18.793Z,86
2023-03-26T00:07:40.030Z,86
2023-03-26T00:08:07.154Z,86
2023-03-26T00:08:38.596Z,86
2023-03-26T00:09:10.908Z,86
2023-03-26T00:09:36.252Z,86
2023-03-26T00:09:59.147Z,86
2023-03-26T00:10:31.259Z,86
2023-03-26T00:10:47.132Z,86
2023-03-26T00:11:19.123Z,86
2023-03-26T00:11:40.076Z,87
2023-03-26T00:12:07.414Z,86
2023-03-26T00:12:38.628Z,86
2023-03-26T00:13:10.595Z,86
2023-03-26T00:13:27.162Z,87
2023-03-26T00:13:58.772Z,87
2023-03-26T00:14:30.799Z,87
2023-03-26T00:14:47.463Z,87
2023-03-26T00:15:19.711Z,87
2023-03-26T00:15:40.125Z,87
2023-03-26T00:16:07.156Z,87
2023-03-26T00:16:38.606Z,87
2023-03-26T00:17:10.714Z,87
2023-03-26T00:17:27.392Z,87
2023-03-26T00:17:59.794Z,87
2023-03-26T00:18:30.803Z,86
2023-03-26T00:18:47.095Z,86
2023-03-26T00:19:18.634Z,87
2023-03-26T00:19:40.066Z,87
2023-03-26T00:20:08.335Z,87
2023-03-26T00:20:38.843Z,86
2023-03-26T00:21:10.480Z,87
2023-03-26T00:21:27.076Z,87
2023-03-26T00:21:58.713Z,87
2023-03-26T00:22:31.375Z,87
2023-03-26T00:22:47.130Z,87
2023-03-26T00:23:18.754Z,87
2023-03-26T00:23:40.421Z,87
2023-03-26T00:24:07.099Z,87
2023-03-26T00:24:38.584Z,87
2023-03-26T00:25:10.925Z,87
2023-03-26T00:25:27.623Z,87
2023-03-26T00:25:59.076Z,87
2023-03-26T00:26:30.896Z,87
2023-03-26T00:26:47.209Z,87
2023-03-26T00:27:18.659Z,86
2023-03-26T00:27:40.078Z,86
2023-03-26T00:28:07.072Z,86
2023-03-26T00:28:38.676Z,86
2023-03-26T00:29:10.520Z,86
2023-03-26T00:29:27.182Z,86
2023-03-26T00:29:59.356Z,86
2023-03-26T00:30:31.763Z,86
2023-03-26T00:30:47.377Z,86
2023-03-26T00:31:18.696Z,86
2023-03-26T00:31:40.007Z,86
2023-03-26T00:32:07.663Z,86
2023-03-26T00:32:39.085Z,86
2023-03-26T00:33:10.821Z,87
2023-03-26T00:33:36.089Z,87
2023-03-26T00:33:58.755Z,87
2023-03-26T00:34:30.933Z,87
2023-03-26T00:35:04.243Z,87
2023-03-26T00:35:34.627Z,87
2023-03-26T00:36:07.309Z,87
2023-03-26T00:36:38.661Z,87
2023-03-26T00:37:10.643Z,86
2023-03-26T00:37:36.411Z,86
2023-03-26T00:37:58.801Z,86
2023-03-26T00:38:31.005Z,86
2023-03-26T00:39:02.907Z,86
2023-03-26T00:39:34.802Z,86
2023-03-26T00:40:08.023Z,85
2023-03-26T00:40:38.608Z,85
2023-03-26T00:41:10.751Z,85
2023-03-26T00:41:36.091Z,86
2023-03-26T00:41:59.148Z,86
2023-03-26T00:42:30.825Z,86
2023-03-26T00:42:47.275Z,86
2023-03-26T00:43:18.710Z,86
2023-03-26T00:43:40.071Z,86
2023-03-26T00:44:07.257Z,86
2023-03-26T00:44:38.708Z,86
2023-03-26T00:45:11.539Z,87
2023-03-26T00:45:27.220Z,87
2023-03-26T00:45:59.670Z,87
2023-03-26T00:46:30.939Z,87
2023-03-26T00:46:47.263Z,87
2023-03-26T00:47:18.667Z,87
2023-03-26T00:47:40.518Z,87
2023-03-26T00:48:07.146Z,87
2023-03-26T00:48:44.973Z,87
2023-03-26T00:49:10.827Z,87
2023-03-26T00:49:27.105Z,87
2023-03-26T00:49:58.840Z,87
2023-03-26T00:50:31.195Z,87
2023-03-26T00:50:47.367Z,87
2023-03-26T00:51:18.572Z,87
2023-03-26T00:51:41.108Z,87
2023-03-26T00:52:07.570Z,87
2023-03-26T00:52:38.659Z,87
2023-03-26T00:53:10.566Z,87
2023-03-26T00:53:27.913Z,87
2023-03-26T00:53:58.839Z,87
2023-03-26T00:54:30.868Z,87
2023-03-26T00:55:04.582Z,87
2023-03-26T00:55:34.635Z,87
2023-03-26T00:56:07.276Z,87
2023-03-26T00:56:39.041Z,88
2023-03-26T00:57:10.728Z,88
2023-03-26T00:57:36.804Z,87
2023-03-26T00:57:59.519Z,88
2023-03-26T00:58:30.698Z,88
2023-03-26T00:58:47.670Z,88
2023-03-26T00:59:18.856Z,88
2023-03-26T00:59:40.325Z,88
2023-03-26T01:00:08.650Z,88
2023-03-26T01:00:38.715Z,88
2023-03-26T01:01:11.476Z,88
2023-03-26T01:01:36.317Z,88
2023-03-26T01:01:58.780Z,88
2023-03-26T01:02:30.788Z,88
2023-03-26T01:02:47.215Z,88
2023-03-26T01:03:27.571Z,88
2023-03-26T01:03:40.392Z,88
2023-03-26T01:04:09.264Z,88
2023-03-26T01:04:38.699Z,88
2023-03-26T01:05:11.012Z,88
2023-03-26T01:05:27.685Z,88
2023-03-26T01:05:59.501Z,88
2023-03-26T01:06:31.126Z,89
2023-03-26T01:06:47.137Z,89
2023-03-26T01:07:18.749Z,89
2023-03-26T01:07:40.035Z,89
2023-03-26T01:08:07.087Z,89
2023-03-26T01:08:38.586Z,89
2023-03-26T01:09:10.817Z,89
2023-03-26T01:09:27.144Z,89
2023-03-26T01:09:58.943Z,89
2023-03-26T01:10:31.239Z,89
2023-03-26T01:10:47.154Z,89
2023-03-26T01:11:18.706Z,89
2023-03-26T01:11:39.999Z,89
2023-03-26T01:12:07.192Z,89
2023-03-26T01:12:38.556Z,89
2023-03-26T01:13:11.018Z,89
2023-03-26T01:13:27.232Z,89
2023-03-26T01:13:58.748Z,89
2023-03-26T01:14:30.953Z,89
2023-03-26T01:15:04.896Z,89
2023-03-26T01:15:34.690Z,89
2023-03-26T01:16:07.180Z,89
2023-03-26T01:16:38.655Z,89
2023-03-26T01:17:10.604Z,89
2023-03-26T01:17:27.188Z,89
2023-03-26T01:17:59.124Z,90
2023-03-26T01:18:31.309Z,90
2023-03-26T01:18:47.383Z,89
2023-03-26T01:19:18.741Z,90
2023-03-26T01:19:40.150Z,90
2023-03-26T01:20:07.820Z,90
2023-03-26T01:20:38.954Z,90
2023-03-26T01:21:10.644Z,90
2023-03-26T01:21:27.086Z,90
2023-03-26T01:21:59.127Z,90
2023-03-26T01:22:30.837Z,90
2023-03-26T01:22:47.289Z,90
2023-03-26T01:23:18.709Z,90
2023-03-26T01:23:40.009Z,90
2023-03-26T01:24:07.070Z,90
2023-03-26T01:24:38.620Z,90
2023-03-26T01:25:10.966Z,90
2023-03-26T01:25:27.144Z,90
2023-03-26T01:25:59.907Z,90
2023-03-26T01:26:30.760Z,90
2023-03-26T01:26:47.146Z,90
2023-03-26T01:27:19.168Z,90
2023-03-26T01:27:40.168Z,90
2023-03-26T01:28:07.042Z,90
2023-03-26T01:28:38.525Z,90
2023-03-26T01:29:10.532Z,90
2023-03-26T01:29:27.118Z,90
2023-03-26T01:29:58.879Z,90
2023-03-26T01:30:31.774Z,90
2023-03-26T01:30:47.231Z,90
2023-03-26T01:31:18.961Z,90
2023-03-26T01:31:40.180Z,90
2023-03-26T01:32:07.102Z,90
2023-03-26T01:32:38.861Z,90
2023-03-26T01:33:10.739Z,90
2023-03-26T01:33:27.307Z,90
2023-03-26T01:33:58.788Z,90
2023-03-26T01:34:30.818Z,90
2023-03-26T01:35:04.377Z,90
2023-03-26T01:35:34.563Z,90
2023-03-26T01:36:07.189Z,90
2023-03-26T01:36:39.464Z,90
2023-03-26T01:37:10.888Z,90
2023-03-26T01:37:27.295Z,90
2023-03-26T01:37:59.541Z,90
2023-03-26T01:38:30.810Z,90
2023-03-26T01:38:47.223Z,90
2023-03-26T01:39:18.670Z,90
2023-03-26T01:39:39.978Z,90
2023-03-26T01:40:07.854Z,90
2023-03-26T01:40:38.758Z,90
2023-03-26T01:41:10.595Z,90
2023-03-26T01:41:36.205Z,90
2023-03-26T01:41:58.860Z,90
2023-03-26T01:42:30.780Z,90
2023-03-26T01:42:47.386Z,90
2023-03-26T01:43:18.904Z,90
2023-03-26T01:43:40.325Z,90
2023-03-26T01:44:07.134Z,90
2023-03-26T01:44:38.623Z,90
2023-03-26T01:45:11.449Z,90
2023-03-26T01:45:27.676Z,89
2023-03-26T01:45:59.210Z,89
2023-03-26T01:46:30.892Z,89
2023-03-26T01:46:47.784Z,89
2023-03-26T01:47:18.684Z,89
2023-03-26T01:47:40.403Z,89
2023-03-26T01:48:07.171Z,89
2023-03-26T01:48:38.578Z,89
2023-03-26T01:49:10.518Z,89
2023-03-26T01:49:27.220Z,89
2023-03-26T01:49:58.739Z,89
2023-03-26T01:50:31.430Z,89
2023-03-26T01:50:47.429Z,89
2023-03-26T01:51:18.594Z,89
2023-03-26T01:51:39.933Z,89
2023-03-26T01:52:08.338Z,89
2023-03-26T01:52:38.565Z,89
2023-03-26T01:53:11.679Z,88
2023-03-26T01:53:36.147Z,89
2023-03-26T01:53:58.836Z,89
2023-03-26T01:54:31.130Z,89
2023-03-26T01:54:47.313Z,89
2023-03-26T01:55:19.454Z,89
2023-03-26T01:55:40.133Z,89
2023-03-26T01:56:07.305Z,89
2023-03-26T01:56:38.818Z,88
2023-03-26T01:57:10.614Z,88
2023-03-26T01:57:27.254Z,88
2023-03-26T01:57:59.039Z,88
2023-03-26T01:58:31.112Z,88
2023-03-26T01:58:47.283Z,88
2023-03-26T01:59:18.660Z,88
2023-03-26T01:59:40.029Z,88
2023-03-26T02:00:08.406Z,88
2023-03-26T02:00:38.667Z,88
2023-03-26T02:01:11.856Z,88
2023-03-26T02:01:36.153Z,88
2023-03-26T02:01:58.778Z,88
2023-03-26T02:02:30.878Z,88
2023-03-26T02:02:47.555Z,88
2023-03-26T02:03:19.068Z,88
2023-03-26T02:03:40.222Z,88
2023-03-26T02:04:07.138Z,88
2023-03-26T02:04:38.579Z,88
2023-03-26T02:05:10.984Z,88
2023-03-26T02:05:27.821Z,88
2023-03-26T02:05:59.842Z,88
2023-03-26T02:06:30.888Z,88
2023-03-26T02:06:47.253Z,88
2023-03-26T02:07:18.690Z,88
2023-03-26T02:07:40.024Z,88
2023-03-26T02:08:07.035Z,87
2023-03-26T02:08:38.792Z,87
2023-03-26T02:09:10.577Z,87
2023-03-26T02:09:27.086Z,87
2023-03-26T02:09:58.735Z,87
2023-03-26T02:10:31.775Z,87
2023-03-26T02:11:02.713Z,87
2023-03-26T02:11:35.997Z,87
2023-03-26T02:12:07.031Z,87
2023-03-26T02:12:38.836Z,87
2023-03-26T02:13:10.514Z,87
2023-03-26T02:13:27.172Z,87
2023-03-26T02:13:59.458Z,87
2023-03-26T02:14:30.824Z,87
2023-03-26T02:14:47.485Z,87
2023-03-26T02:15:19.661Z,87
2023-03-26T02:15:40.108Z,87
2023-03-26T02:16:07.087Z,87
2023-03-26T02:16:38.996Z,87
2023-03-26T02:17:10.521Z,87
2023-03-26T02:17:27.093Z,87
2023-03-26T02:17:58.811Z,87
2023-03-26T02:18:30.752Z,87
2023-03-26T02:18:47.252Z,87
2023-03-26T02:19:18.907Z,87
2023-03-26T02:19:40.376Z,87
2023-03-26T02:20:07.792Z,87
2023-03-26T02:20:38.562Z,87
2023-03-26T02:21:10.580Z,87
2023-03-26T02:21:27.140Z,87
2023-03-26T02:21:58.897Z,87
2023-03-26T02:22:30.921Z,87
2023-03-26T02:23:02.673Z,87
2023-03-26T02:23:34.673Z,87
2023-03-26T02:24:07.096Z,87
2023-03-26T02:24:38.700Z,86
2023-03-26T02:25:11.007Z,86
2023-03-26T02:25:27.157Z,86
2023-03-26T02:25:59.494Z,86
2023-03-26T02:26:30.868Z,86
2023-03-26T02:27:02.632Z,86
2023-03-26T02:27:34.490Z,86
2023-03-26T02:28:07.082Z,87
2023-03-26T02:28:38.622Z,87
2023-03-26T02:29:10.564Z,86
2023-03-26T02:29:27.243Z,86
2023-03-26T02:29:58.818Z,86
2023-03-26T02:30:31.821Z,86
2023-03-26T02:30:48.171Z,86
2023-03-26T02:31:18.661Z,87
2023-03-26T02:31:40.184Z,87
2023-03-26T02:32:07.109Z,86
2023-03-26T02:32:38.769Z,86
2023-03-26T02:33:10.548Z,86
2023-03-26T02:33:27.156Z,86
2023-03-26T02:33:58.713Z,86
2023-03-26T02:34:30.747Z,86
2023-03-26T02:34:48.405Z,86
2023-03-26T02:35:18.990Z,86
2023-03-26T02:35:40.190Z,86
2023-03-26T02:36:07.319Z,86
2023-03-26T02:36:39.386Z,86
2023-03-26T02:37:10.483Z,86
2023-03-26T02:37:27.061Z,86
2023-03-26T02:37:58.618Z,86
2023-03-26T02:38:30.900Z,86
2023-03-26T02:38:47.223Z,86
2023-03-26T02:39:18.729Z,86
2023-03-26T02:39:40.032Z,86
2023-03-26T02:40:07.843Z,86
2023-03-26T02:40:38.562Z,86
2023-03-26T02:41:10.618Z,86
2023-03-26T02:41:27.373Z,87
2023-03-26T02:41:59.002Z,87
2023-03-26T02:42:30.716Z,87
2023-03-26T02:42:47.356Z,87
2023-03-26T02:43:18.906Z,86
2023-03-26T02:43:40.182Z,86
2023-03-26T02:44:07.081Z,86
2023-03-26T02:44:38.606Z,86
2023-03-26T02:45:12.016Z,86
2023-03-26T02:45:36.742Z,86
2023-03-26T02:45:59.277Z,86
2023-03-26T02:46:30.939Z,86
2023-03-26T02:46:47.207Z,86
2023-03-26T02:47:18.714Z,86
2023-03-26T02:47:40.135Z,86
2023-03-26T02:48:07.167Z,86
2023-03-26T02:48:38.831Z,86
2023-03-26T02:49:11.313Z,85
2023-03-26T02:49:36.074Z,85
2023-03-26T02:49:58.731Z,86
2023-03-26T02:50:31.245Z,86
2023-03-26T02:50:47.198Z,86
2023-03-26T02:51:18.794Z,86
2023-03-26T02:51:40.076Z,86
2023-03-26T02:52:07.148Z,86
2023-03-26T02:52:39.724Z,86
2023-03-26T02:53:10.625Z,86
2023-03-26T02:53:27.257Z,86
2023-03-26T02:53:58.570Z,86
2023-03-26T02:54:30.755Z,86
2023-03-26T02:54:47.266Z,86
2023-03-26T02:55:19.065Z,86
2023-03-26T02:55:40.009Z,86
2023-03-26T02:56:07.255Z,86
2023-03-26T02:56:38.734Z,86
2023-03-26T02:57:10.700Z,86
2023-03-26T02:57:27.259Z,86
2023-03-26T02:57:58.891Z,86
2023-03-26T02:58:30.943Z,86
2023-03-26T02:58:47.274Z,86
2023-03-26T02:59:18.740Z,86
2023-03-26T02:59:40.127Z,86
2023-03-26T03:00:08.380Z,86
2023-03-26T03:00:38.820Z,86
2023-03-26T03:01:11.189Z,86
2023-03-26T03:01:27.220Z,86
2023-03-26T03:01:59.154Z,87
2023-03-26T03:02:30.868Z,86
2023-03-26T03:02:47.348Z,87
2023-03-26T03:03:18.950Z,87
2023-03-26T03:03:40.101Z,87
2023-03-26T03:04:07.162Z,87
2023-03-26T03:04:38.545Z,87
2023-03-26T03:05:11.357Z,87
2023-03-26T03:05:36.134Z,87
2023-03-26T03:05:59.705Z,87
2023-03-26T03:06:30.779Z,87
2023-03-26T03:06:47.305Z,87
2023-03-26T03:07:18.668Z,87
2023-03-26T03:07:40.246Z,88
2023-03-26T03:08:07.187Z,88
2023-03-26T03:08:38.889Z,88
2023-03-26T03:09:10.539Z,88
2023-03-26T03:09:27.271Z,88
2023-03-26T03:09:58.791Z,88
2023-03-26T03:10:31.864Z,89
2023-03-26T03:10:47.637Z,89
2023-03-26T03:11:18.745Z,89
2023-03-26T03:11:40.098Z,89
2023-03-26T03:12:07.222Z,89
2023-03-26T03:12:38.597Z,89
2023-03-26T03:13:10.695Z,89
2023-03-26T03:13:27.165Z,89
2023-03-26T03:13:58.653Z,89
2023-03-26T03:14:30.851Z,89
2023-03-26T03:14:47.663Z,89
2023-03-26T03:15:19.748Z,89
2023-03-26T03:15:40.174Z,89
2023-03-26T03:16:07.615Z,89
2023-03-26T03:16:38.581Z,89
2023-03-26T03:17:10.604Z,90
2023-03-26T03:17:27.245Z,90
2023-03-26T03:17:58.772Z,90
2023-03-26T03:18:30.844Z,90
2023-03-26T03:18:47.273Z,90
2023-03-26T03:19:18.699Z,90
2023-03-26T03:19:40.029Z,90
2023-03-26T03:20:08.174Z,90
2023-03-26T03:20:38.598Z,90
2023-03-26T03:21:10.864Z,90
2023-03-26T03:21:36.154Z,90
2023-03-26T03:21:58.594Z,90
2023-03-26T03:22:31.009Z,90
2023-03-26T03:22:47.203Z,90
2023-03-26T03:23:18.753Z,90
2023-03-26T03:23:40.059Z,90
2023-03-26T03:24:07.138Z,90
2023-03-26T03:24:38.636Z,91
2023-03-26T03:25:11.464Z,91
2023-03-26T03:25:27.234Z,90
2023-03-26T03:25:59.288Z,91
2023-03-26T03:26:30.871Z,91
2023-03-26T03:26:47.602Z,91
2023-03-26T03:27:18.842Z,91
2023-03-26T03:27:40.057Z,91
2023-03-26T03:28:07.108Z,91
2023-03-26T03:28:38.620Z,91
2023-03-26T03:29:10.528Z,91
2023-03-26T03:29:27.249Z,91
2023-03-26T03:29:58.745Z,91
2023-03-26T03:30:31.740Z,91
2023-03-26T03:30:47.354Z,91
2023-03-26T03:31:18.812Z,91
2023-03-26T03:31:40.028Z,91
2023-03-26T03:32:07.179Z,91
2023-03-26T03:32:38.699Z,91
2023-03-26T03:33:10.577Z,91
2023-03-26T03:33:27.426Z,91
2023-03-26T03:33:58.618Z,91
2023-03-26T03:34:31.000Z,91
2023-03-26T03:34:47.232Z,91
2023-03-26T03:35:19.064Z,91
2023-03-26T03:35:40.163Z,91
2023-03-26T03:36:07.067Z,91
2023-03-26T03:36:38.735Z,91
2023-03-26T03:37:11.607Z,91
2023-03-26T03:37:36.808Z,91
2023-03-26T03:37:58.758Z,91
2023-03-26T03:38:30.889Z,91
2023-03-26T03:38:47.250Z,91
2023-03-26T03:39:18.668Z,91
2023-03-26T03:39:39.964Z,91
2023-03-26T03:40:07.872Z,91
2023-03-26T03:40:38.603Z,91
2023-03-26T03:41:10.489Z,91
2023-03-26T03:41:27.198Z,91
2023-03-26T03:41:58.619Z,91
2023-03-26T03:42:30.820Z,91
2023-03-26T03:42:47.206Z,91
2023-03-26T03:43:19.487Z,91
2023-03-26T03:43:40.083Z,91
2023-03-26T03:44:07.124Z,91
2023-03-26T03:44:38.582Z,91
2023-03-26T03:45:11.750Z,91
2023-03-26T03:45:36.340Z,91
2023-03-26T03:46:00.099Z,91
2023-03-26T03:46:30.944Z,91
2023-03-26T03:46:47.104Z,91
2023-03-26T03:47:18.735Z,91
2023-03-26T03:47:40.285Z,91
2023-03-26T03:48:07.132Z,91
2023-03-26T03:48:38.673Z,91
2023-03-26T03:49:11.694Z,91
2023-03-26T03:49:36.829Z,91
2023-03-26T03:49:58.671Z,91
2023-03-26T03:50:32.969Z,91
2023-03-26T03:51:02.622Z,91
2023-03-26T03:51:34.844Z,91
2023-03-26T03:52:07.094Z,91
2023-03-26T03:52:38.622Z,91
2023-03-26T03:53:10.711Z,91
2023-03-26T03:53:36.850Z,91
2023-03-26T03:53:58.670Z,91
2023-03-26T03:54:30.905Z,91
2023-03-26T03:55:04.047Z,91
2023-03-26T03:55:34.609Z,91
2023-03-26T03:56:07.172Z,91
2023-03-26T03:56:38.593Z,91
2023-03-26T03:57:10.592Z,91
2023-03-26T03:57:27.389Z,91
2023-03-26T03:57:59.849Z,91
2023-03-26T03:58:30.733Z,91
2023-03-26T03:58:47.244Z,91
2023-03-26T03:59:18.648Z,91
2023-03-26T03:59:47.850Z,91
2023-03-26T04:00:08.450Z,91
2023-03-26T04:00:38.695Z,92
2023-03-26T04:01:11.339Z,92
2023-03-26T04:01:27.692Z,92
2023-03-26T04:01:58.615Z,92
2023-03-26T04:02:30.853Z,92
2023-03-26T04:02:47.288Z,92
2023-03-26T04:03:18.866Z,92
2023-03-26T04:03:40.180Z,92
2023-03-26T04:04:07.188Z,92
2023-03-26T04:04:38.674Z,92
2023-03-26T04:05:11.036Z,92
2023-03-26T04:05:36.161Z,92
2023-03-26T04:05:59.087Z,92
2023-03-26T04:06:30.732Z,92
2023-03-26T04:06:47.138Z,92
2023-03-26T04:07:18.879Z,92
2023-03-26T04:07:40.101Z,92
2023-03-26T04:08:07.166Z,92
2023-03-26T04:08:38.694Z,92
2023-03-26T04:09:10.693Z,92
2023-03-26T04:09:27.412Z,92
2023-03-26T04:09:58.770Z,92
2023-03-26T04:10:31.634Z,92
2023-03-26T04:10:47.452Z,92
2023-03-26T04:11:18.781Z,92
2023-03-26T04:11:40.251Z,92
2023-03-26T04:12:07.175Z,92
2023-03-26T04:12:38.579Z,92
2023-03-26T04:13:10.551Z,92
2023-03-26T04:13:27.169Z,92
2023-03-26T04:13:58.675Z,92
2023-03-26T04:14:30.851Z,92
2023-03-26T04:14:47.284Z,92
2023-03-26T04:15:19.713Z,92
2023-03-26T04:15:40.213Z,92
2023-03-26T04:16:07.364Z,92
2023-03-26T04:16:38.671Z,92
2023-03-26T04:17:11.007Z,92
2023-03-26T04:17:36.119Z,92
2023-03-26T04:17:58.726Z,92
2023-03-26T04:18:30.852Z,92
2023-03-26T04:18:47.996Z,92
2023-03-26T04:19:18.966Z,91
2023-03-26T04:19:40.067Z,91
2023-03-26T04:20:07.810Z,91
2023-03-26T04:20:38.684Z,91
2023-03-26T04:21:10.689Z,91
2023-03-26T04:21:27.758Z,91
2023-03-26T04:21:58.665Z,91
2023-03-26T04:22:30.903Z,91
2023-03-26T04:22:47.542Z,91
2023-03-26T04:23:18.887Z,91
2023-03-26T04:23:40.328Z,91
2023-03-26T04:24:07.160Z,91
2023-03-26T04:24:38.993Z,91
2023-03-26T04:25:11.971Z,91
2023-03-26T04:25:36.137Z,91
2023-03-26T04:25:59.017Z,91
2023-03-26T04:26:30.720Z,91
2023-03-26T04:26:47.307Z,91
2023-03-26T04:27:18.861Z,91
2023-03-26T04:27:40.387Z,91
2023-03-26T04:28:07.173Z,91
2023-03-26T04:28:38.573Z,91
2023-03-26T04:29:11.826Z,91
2023-03-26T04:29:36.321Z,91
2023-03-26T04:29:58.706Z,91
2023-03-26T04:30:31.674Z,91
2023-03-26T04:30:47.380Z,91
2023-03-26T04:31:18.881Z,91
2023-03-26T04:31:40.114Z,91
2023-03-26T04:32:07.305Z,91
2023-03-26T04:32:39.287Z,91
2023-03-26T04:33:10.635Z,91
2023-03-26T04:33:27.260Z,91
2023-03-26T04:33:58.706Z,91
2023-03-26T04:34:30.801Z,91
2023-03-26T04:34:47.202Z,91
2023-03-26T04:35:19.265Z,91
2023-03-26T04:35:40.373Z,91
2023-03-26T04:36:07.305Z,91
2023-03-26T04:36:38.902Z,91
2023-03-26T04:37:10.582Z,91
2023-03-26T04:37:27.310Z,91
2023-03-26T04:37:58.684Z,91
2023-03-26T04:38:30.784Z,91
2023-03-26T04:38:47.284Z,91
2023-03-26T04:39:18.722Z,91
2023-03-26T04:39:40.104Z,91
2023-03-26T04:40:07.970Z,91
2023-03-26T04:40:38.702Z,91
2023-03-26T04:41:10.974Z,91
2023-03-26T04:41:36.116Z,91
2023-03-26T04:41:59.307Z,91
2023-03-26T04:42:30.827Z,91
2023-03-26T04:42:48.149Z,91
2023-03-26T04:43:19.081Z,91
2023-03-26T04:43:40.239Z,91
2023-03-26T04:44:07.103Z,91
2023-03-26T04:44:38.703Z,92
2023-03-26T04:45:12.053Z,91
2023-03-26T04:45:36.267Z,91
2023-03-26T04:45:59.159Z,91
2023-03-26T04:46:30.823Z,91
2023-03-26T04:46:47.408Z,92
2023-03-26T04:47:18.722Z,92
2023-03-26T04:47:40.367Z,92
2023-03-26T04:48:07.199Z,92
2023-03-26T04:48:38.845Z,92
2023-03-26T04:49:10.615Z,92
2023-03-26T04:49:27.215Z,92
2023-03-26T04:49:59.070Z,92
2023-03-26T04:50:31.328Z,92
2023-03-26T04:50:47.364Z,92
2023-03-26T04:51:18.706Z,92
2023-03-26T04:51:40.049Z,92
2023-03-26T04:52:07.114Z,92
2023-03-26T04:52:38.570Z,92
2023-03-26T04:53:10.624Z,92
2023-03-26T04:53:27.179Z,92
2023-03-26T04:54:00.003Z,92
2023-03-26T04:54:30.814Z,92
2023-03-26T04:54:47.151Z,92
2023-03-26T04:55:19.282Z,92
2023-03-26T04:55:40.174Z,92
2023-03-26T04:56:07.157Z,92
2023-03-26T04:56:38.602Z,92
2023-03-26T04:57:10.676Z,92
2023-03-26T04:57:27.150Z,92
2023-03-26T04:57:58.656Z,92
2023-03-26T04:58:30.770Z,92
2023-03-26T04:58:47.311Z,92
2023-03-26T04:59:18.739Z,92
2023-03-26T04:59:40.170Z,92
2023-03-26T05:00:08.548Z,92
2023-03-26T05:00:38.660Z,92
2023-03-26T05:01:11.424Z,92
2023-03-26T05:01:36.320Z,92
2023-03-26T05:01:58.713Z,92
2023-03-26T05:02:30.999Z,92
2023-03-26T05:02:48.152Z,92
2023-03-26T05:03:19.053Z,92
2023-03-26T05:03:40.168Z,92
2023-03-26T05:04:07.298Z,92
2023-03-26T05:04:39.161Z,92
2023-03-26T05:05:11.174Z,92
2023-03-26T05:05:27.819Z,92
2023-03-26T05:05:59.270Z,92
2023-03-26T05:06:30.939Z,92
2023-03-26T05:07:02.689Z,92
2023-03-26T05:07:35.664Z,92
2023-03-26T05:08:07.187Z,92
2023-03-26T05:08:38.691Z,92
2023-03-26T05:09:10.800Z,92
2023-03-26T05:09:27.513Z,92
2023-03-26T05:09:59.511Z,92
2023-03-26T05:10:31.549Z,92
2023-03-26T05:11:02.946Z,92
2023-03-26T05:11:34.778Z,92
2023-03-26T05:12:07.363Z,92
2023-03-26T05:12:38.850Z,92
2023-03-26T05:13:10.676Z,92
2023-03-26T05:13:27.516Z,92
2023-03-26T05:13:59.379Z,92
2023-03-26T05:14:30.864Z,92
2023-03-26T05:14:47.543Z,92
2023-03-26T05:15:19.896Z,92
2023-03-26T05:15:40.352Z,92
2023-03-26T05:16:07.221Z,92
2023-03-26T05:16:38.881Z,92
2023-03-26T05:17:10.988Z,92
2023-03-26T05:17:27.394Z,92
2023-03-26T05:17:58.931Z,92
2023-03-26T05:18:31.069Z,92
2023-03-26T05:18:47.519Z,92
2023-03-26T05:19:18.924Z,92
2023-03-26T05:19:40.307Z,92
2023-03-26T05:20:08.246Z,92
2023-03-26T05:20:38.901Z,92
2023-03-26T05:21:11.197Z,92
2023-03-26T05:21:36.883Z,92
2023-03-26T05:21:59.397Z,92
2023-03-26T05:22:31.098Z,92
2023-03-26T05:22:47.760Z,92
2023-03-26T05:23:19.077Z,92
2023-03-26T05:23:40.337Z,92
2023-03-26T05:24:07.355Z,92
2023-03-26T05:24:38.841Z,92
2023-03-26T05:25:11.206Z,92
2023-03-26T05:25:27.381Z,92
2023-03-26T05:25:59.270Z,92
2023-03-26T05:26:31.008Z,92
2023-03-26T05:26:47.917Z,92
2023-03-26T05:27:18.919Z,92
2023-03-26T05:27:40.285Z,92
2023-03-26T05:28:08.104Z,92
2023-03-26T05:28:38.878Z,92
2023-03-26T05:29:11.133Z,92
2023-03-26T05:29:36.660Z,92
2023-03-26T05:29:58.993Z,92
2023-03-26T05:30:31.850Z,92
2023-03-26T05:30:47.655Z,92
2023-03-26T05:31:18.944Z,92
2023-03-26T05:31:40.407Z,92
2023-03-26T05:32:07.892Z,92
2023-03-26T05:32:38.902Z,91
2023-03-26T05:33:11.521Z,91
2023-03-26T05:33:36.686Z,91
2023-03-26T05:33:59.683Z,91
2023-03-26T05:34:30.991Z,91
2023-03-26T05:34:47.560Z,91
2023-03-26T05:35:19.521Z,91
2023-03-26T05:35:40.401Z,91
2023-03-26T05:36:07.587Z,91
2023-03-26T05:36:38.921Z,91
2023-03-26T05:37:11.361Z,91
2023-03-26T05:37:36.469Z,90
2023-03-26T05:37:59.188Z,90
2023-03-26T05:38:31.160Z,90
2023-03-26T05:39:03.371Z,90
2023-03-26T05:39:34.811Z,90
2023-03-26T05:40:08.355Z,90
2023-03-26T05:40:38.917Z,90
2023-03-26T05:41:10.847Z,89
2023-03-26T05:41:27.592Z,89
2023-03-26T05:42:00.272Z,89
2023-03-26T05:42:31.037Z,89
2023-03-26T05:42:47.817Z,89
2023-03-26T05:43:19.014Z,89
2023-03-26T05:43:40.311Z,89
2023-03-26T05:44:07.643Z,89
2023-03-26T05:44:39.039Z,89
2023-03-26T05:45:11.855Z,90
2023-03-26T05:45:36.488Z,89
2023-03-26T05:45:59.312Z,89
2023-03-26T05:46:31.171Z,89
2023-03-26T05:46:47.573Z,89
2023-03-26T05:47:18.852Z,89
2023-03-26T05:47:40.373Z,89
2023-03-26T05:48:07.465Z,89
2023-03-26T05:48:39.040Z,89
2023-03-26T05:49:10.779Z,89
2023-03-26T05:49:27.588Z,89
2023-03-26T05:49:59.214Z,89
2023-03-26T05:50:31.414Z,89
2023-03-26T05:50:47.602Z,89
2023-03-26T05:51:19.054Z,89
2023-03-26T05:51:40.538Z,89
2023-03-26T05:52:07.902Z,89
2023-03-26T05:52:38.953Z,89
2023-03-26T05:53:10.933Z,89
2023-03-26T05:53:27.480Z,89
2023-03-26T05:53:58.919Z,89
2023-03-26T05:54:32.046Z,89
2023-03-26T05:54:48.871Z,89
2023-03-26T05:55:20.018Z,89
2023-03-26T05:55:40.403Z,89
2023-03-26T05:56:07.424Z,89
2023-03-26T05:56:38.906Z,89
2023-03-26T05:57:11.504Z,89
2023-03-26T05:57:36.835Z,89
2023-03-26T05:57:58.857Z,89
2023-03-26T05:58:31.074Z,89
2023-03-26T05:58:47.469Z,89
2023-03-26T05:59:19.100Z,89
2023-03-26T05:59:40.472Z,89
2023-03-26T06:00:08.721Z,89
2023-03-26T06:00:39.067Z,89
2023-03-26T06:01:11.471Z,89
2023-03-26T06:01:27.548Z,89
2023-03-26T06:01:59.046Z,89
2023-03-26T06:02:31.137Z,89
2023-03-26T06:03:03.256Z,89
2023-03-26T06:03:34.878Z,89
2023-03-26T06:04:07.611Z,89
2023-03-26T06:04:39.017Z,89
2023-03-26T06:05:11.677Z,89
2023-03-26T06:05:36.359Z,89
2023-03-26T06:05:59.326Z,89
2023-03-26T06:06:33.078Z,89
2023-03-26T06:06:47.503Z,89
2023-03-26T06:07:18.959Z,89
2023-03-26T06:07:40.523Z,89
2023-03-26T06:08:07.419Z,89
2023-03-26T06:08:39.047Z,89
2023-03-26T06:09:10.800Z,88
2023-03-26T06:09:27.392Z,88
2023-03-26T06:09:59.119Z,88
2023-03-26T06:10:31.504Z,88
2023-03-26T06:10:47.486Z,88
2023-03-26T06:11:19.029Z,88
2023-03-26T06:11:40.381Z,88
2023-03-26T06:12:07.422Z,88
2023-03-26T06:12:38.981Z,88
2023-03-26T06:13:11.188Z,88
2023-03-26T06:13:36.456Z,88
2023-03-26T06:13:59.205Z,88
2023-03-26T06:14:30.997Z,88
2023-03-26T06:14:47.456Z,88
2023-03-26T06:15:19.794Z,88
2023-03-26T06:15:40.552Z,88
2023-03-26T06:16:07.423Z,88
2023-03-26T06:16:38.908Z,88
2023-03-26T06:17:10.810Z,88
2023-03-26T06:17:27.546Z,88
2023-03-26T06:17:59.013Z,88
2023-03-26T06:18:31.443Z,88
2023-03-26T06:19:02.949Z,88
2023-03-26T06:19:34.859Z,88
2023-03-26T06:20:09.400Z,88
2023-03-26T06:20:38.916Z,88
2023-03-26T06:21:10.883Z,88
2023-03-26T06:21:27.490Z,88
2023-03-26T06:21:58.972Z,88
2023-03-26T06:22:31.568Z,88
2023-03-26T06:23:03.029Z,88
2023-03-26T06:23:35.216Z,88
2023-03-26T06:24:07.457Z,88
2023-03-26T06:24:38.954Z,88
2023-03-26T06:25:11.385Z,88
2023-03-26T06:25:27.448Z,88
2023-03-26T06:25:59.524Z,88
2023-03-26T06:26:31.046Z,88
2023-03-26T06:26:47.379Z,88
2023-03-26T06:27:18.955Z,88
2023-03-26T06:27:40.350Z,88